createdAt,value
2017-09-24T08:34:43.460Z,72.92
2017-09-24T08:35:08.917Z,72.92
2017-09-24T08:35:34.374Z,73.02
2017-09-24T08:35:59.842Z,73.31
2017-09-24T08:36:25.289Z,73.11
2017-09-24T08:36:50.729Z,72.83
2017-09-24T08:37:16.192Z,73.31
2017-09-24T08:37:41.646Z,73.69
2017-09-24T08:38:39.597Z,73.41
2017-09-24T08:39:05.051Z,73.41
2017-09-24T08:39:30.509Z,73.35
2017-09-24T08:39:55.952Z,73.6
2017-09-24T08:40:21.404Z,73.69
2017-09-24T08:40:46.873Z,73.79
2017-09-24T08:41:12.333Z,73.41
2017-09-24T08:41:37.781Z,73.6
2017-09-24T08:42:03.233Z,73.73
2017-09-24T08:42:28.691Z,73.83
2017-09-24T08:42:54.162Z,73.88
2017-09-24T08:43:19.609Z,73.92
2017-09-24T08:43:45.052Z,73.73
2017-09-24T08:44:10.533Z,73.83
2017-09-24T08:44:35.976Z,73.54
2017-09-24T08:45:01.437Z,73.92
2017-09-24T08:45:26.878Z,73.69
2017-09-24T08:45:52.336Z,73.73
2017-09-24T08:46:17.792Z,73.63
2017-09-24T08:46:43.241Z,73.63
2017-09-24T08:47:08.665Z,73.63
2017-09-24T08:47:34.146Z,73.63
2017-09-24T08:47:59.599Z,73.63
2017-09-24T08:48:25.047Z,73.73
2017-09-24T08:48:50.497Z,73.63
2017-09-24T08:49:15.947Z,73.73
2017-09-24T08:49:41.420Z,73.73
2017-09-24T08:50:06.865Z,73.73
2017-09-24T08:50:32.320Z,73.73
2017-09-24T08:50:57.758Z,73.63
2017-09-24T08:51:23.276Z,73.73
2017-09-24T08:51:48.743Z,73.73
2017-09-24T08:52:14.178Z,74.02
2017-09-24T08:52:39.647Z,73.63
2017-09-24T08:53:05.098Z,74.11
2017-09-24T08:53:30.551Z,73.73
2017-09-24T08:53:55.998Z,73.63
2017-09-24T08:54:21.462Z,73.92
2017-09-24T08:54:46.907Z,74.11
2017-09-24T08:55:12.365Z,74.11
2017-09-24T08:55:37.813Z,73.83
2017-09-24T08:56:03.273Z,73.63
2017-09-24T08:56:28.725Z,73.73
2017-09-24T08:56:54.164Z,73.92
2017-09-24T08:57:19.626Z,74.02
2017-09-24T08:57:45.061Z,73.63
2017-09-24T08:58:10.553Z,73.92
2017-09-24T08:58:36.004Z,74.11
2017-09-24T08:59:01.464Z,74.11
2017-09-24T08:59:26.919Z,74.11
2017-09-24T08:59:52.368Z,73.92
2017-09-24T09:00:17.810Z,74.11
2017-09-24T09:00:43.259Z,73.92
2017-09-24T09:01:08.717Z,73.92
2017-09-24T09:01:34.156Z,73.92
2017-09-24T09:01:59.606Z,73.92
2017-09-24T09:02:25.050Z,74.02
2017-09-24T09:02:50.506Z,73.92
2017-09-24T09:03:15.948Z,73.83
2017-09-24T09:03:41.408Z,73.83
2017-09-24T09:04:06.867Z,73.92
2017-09-24T09:04:32.309Z,73.83
2017-09-24T09:04:57.766Z,73.83
2017-09-24T09:05:23.221Z,73.92
2017-09-24T09:05:48.674Z,73.83
2017-09-24T09:06:14.144Z,73.83
2017-09-24T09:06:39.599Z,73.92
2017-09-24T09:07:05.052Z,73.83
2017-09-24T09:07:30.521Z,73.73
2017-09-24T09:07:55.979Z,73.83
2017-09-24T09:08:21.433Z,73.73
2017-09-24T09:08:46.898Z,73.83
2017-09-24T09:09:12.357Z,73.83
2017-09-24T09:09:37.808Z,74.02
2017-09-24T09:10:03.262Z,74.11
2017-09-24T09:10:28.712Z,73.92
2017-09-24T09:10:54.174Z,73.92
2017-09-24T09:11:19.640Z,73.92
2017-09-24T09:11:45.101Z,73.92
2017-09-24T09:12:10.580Z,73.92
2017-09-24T09:12:36.032Z,73.92
2017-09-24T09:13:01.492Z,74.02
2017-09-24T09:13:26.939Z,73.92
2017-09-24T09:13:52.396Z,73.83
2017-09-24T09:14:17.849Z,73.92
2017-09-24T09:14:43.304Z,73.92
2017-09-24T09:15:08.748Z,73.92
2017-09-24T09:15:34.203Z,73.73
2017-09-24T09:15:59.638Z,74.02
2017-09-24T09:16:25.107Z,73.73
2017-09-24T09:16:50.564Z,73.73
2017-09-24T09:17:16.002Z,73.73
2017-09-24T09:17:41.459Z,73.92
2017-09-24T09:18:06.912Z,73.73
2017-09-24T09:18:32.385Z,73.73
2017-09-24T09:18:57.831Z,73.73
2017-09-24T09:19:23.294Z,73.92
2017-09-24T09:19:48.750Z,73.92
2017-09-24T09:20:14.226Z,73.73
2017-09-24T09:20:39.671Z,73.92
2017-09-24T09:21:05.139Z,73.92
2017-09-24T09:21:30.605Z,73.92
2017-09-24T09:21:56.057Z,73.92
2017-09-24T09:22:21.510Z,73.83
2017-09-24T09:22:46.988Z,73.73
2017-09-24T09:23:12.442Z,73.83
2017-09-24T09:23:37.923Z,73.92
2017-09-24T09:24:03.374Z,73.83
2017-09-24T09:24:28.829Z,74.21
2017-09-24T09:24:54.278Z,74.4
2017-09-24T09:25:19.745Z,74.21
2017-09-24T09:25:45.198Z,73.83
2017-09-24T09:26:10.682Z,73.92
2017-09-24T09:26:36.144Z,73.83
2017-09-24T09:27:01.598Z,74.21
2017-09-24T09:27:27.065Z,73.63
2017-09-24T09:27:52.498Z,73.92
2017-09-24T09:28:17.964Z,73.83
2017-09-24T09:28:43.401Z,73.83
2017-09-24T09:29:08.859Z,74.02
2017-09-24T09:29:34.309Z,74.11
2017-09-24T09:29:59.757Z,73.92
2017-09-24T09:30:25.222Z,74.11
2017-09-24T09:30:50.676Z,74.11
2017-09-24T09:31:16.103Z,74.11
2017-09-24T09:31:41.543Z,74.11
2017-09-24T09:32:07.000Z,74.21
2017-09-24T09:32:32.454Z,74.21
2017-09-24T09:32:57.927Z,74.21
2017-09-24T09:33:23.391Z,74.21
2017-09-24T09:33:48.848Z,74.11
2017-09-24T09:34:14.294Z,74.21
2017-09-24T09:34:39.758Z,74.21
2017-09-24T09:35:05.209Z,74.3
2017-09-24T09:35:30.671Z,74.21
2017-09-24T09:35:56.126Z,74.21
2017-09-24T09:36:21.590Z,74.3
2017-09-24T09:36:47.049Z,74.3
2017-09-24T09:37:12.504Z,74.5
2017-09-24T09:37:37.962Z,74.5
2017-09-24T09:38:03.419Z,74.3
2017-09-24T09:38:28.877Z,74.4
2017-09-24T09:38:54.332Z,74.5
2017-09-24T09:39:19.791Z,74.5
2017-09-24T09:39:45.245Z,74.3
2017-09-24T09:40:10.693Z,74.4
2017-09-24T09:40:36.161Z,74.21
2017-09-24T09:41:01.608Z,74.3
2017-09-24T09:41:27.073Z,74.3
2017-09-24T09:41:52.545Z,74.21
2017-09-24T09:42:18.002Z,74.21
2017-09-24T09:42:43.449Z,74.4
2017-09-24T09:43:08.916Z,74.21
2017-09-24T09:43:34.364Z,74.4
2017-09-24T09:43:59.808Z,74.3
2017-09-24T09:44:25.265Z,74.3
2017-09-24T09:44:50.741Z,74.4
2017-09-24T09:45:16.198Z,74.3
2017-09-24T09:45:41.670Z,74.21
2017-09-24T09:46:07.120Z,74.3
2017-09-24T09:46:32.639Z,74.21
2017-09-24T09:46:58.080Z,74.21
2017-09-24T09:47:23.581Z,74.25
2017-09-24T09:47:49.052Z,74.21
2017-09-24T09:48:14.527Z,74.4
2017-09-24T09:48:39.970Z,74.21
2017-09-24T09:49:05.429Z,74.3
2017-09-24T09:49:30.883Z,74.21
2017-09-24T09:49:56.333Z,74.02
2017-09-24T09:50:21.791Z,74.02
2017-09-24T09:50:47.248Z,74.3
2017-09-24T09:51:12.702Z,74.15
2017-09-24T09:51:38.157Z,74.11
2017-09-24T09:52:03.616Z,74.3
2017-09-24T09:52:29.075Z,74.21
2017-09-24T09:52:54.538Z,74.3
2017-09-24T09:53:19.989Z,74.11
2017-09-24T09:53:45.443Z,74.34
2017-09-24T09:54:10.924Z,74.21
2017-09-24T09:54:36.361Z,74.11
2017-09-24T09:55:01.815Z,74.44
2017-09-24T09:55:27.269Z,74.21
2017-09-24T09:55:52.739Z,73.92
2017-09-24T09:56:18.195Z,74.11
2017-09-24T09:56:43.659Z,74.21
2017-09-24T09:57:09.117Z,74.15
2017-09-24T09:57:34.594Z,74.5
2017-09-24T09:58:00.044Z,74.15
2017-09-24T09:58:25.490Z,74.21
2017-09-24T09:58:50.943Z,74.25
2017-09-24T09:59:16.404Z,74.4
2017-09-24T09:59:41.889Z,74.21
2017-09-24T10:00:07.335Z,74.21
2017-09-24T10:00:32.796Z,74.44
2017-09-24T10:00:58.242Z,74.4
2017-09-24T10:01:23.685Z,74.4
2017-09-24T10:02:16.567Z,74.34
2017-09-24T10:02:42.026Z,74.44
2017-09-24T10:03:07.471Z,74.54
2017-09-24T10:03:32.923Z,74.3
2017-09-24T10:03:58.394Z,74.44
2017-09-24T10:05:06.545Z,74.44
2017-09-24T10:05:31.980Z,74.44
2017-09-24T10:05:57.498Z,74.63
2017-09-24T10:06:22.928Z,74.34
2017-09-24T10:06:48.379Z,74.44
2017-09-24T10:07:13.828Z,74.5
2017-09-24T10:07:39.273Z,74.63
2017-09-24T10:08:04.733Z,74.44
2017-09-24T10:08:30.201Z,74.44
2017-09-24T10:08:55.638Z,74.44
2017-09-24T10:09:21.118Z,74.02
2017-09-24T10:09:46.540Z,74.44
2017-09-24T10:10:11.987Z,74.11
2017-09-24T10:10:37.421Z,74.63
2017-09-24T10:11:02.889Z,74.15
2017-09-24T10:11:28.365Z,74.15
2017-09-24T10:11:53.821Z,74.15
2017-09-24T10:12:19.243Z,74.15
2017-09-24T10:12:44.701Z,74.34
2017-09-24T10:13:10.152Z,74.34
2017-09-24T10:13:35.581Z,74.34
2017-09-24T10:14:01.043Z,74.82
2017-09-24T10:14:26.514Z,74.34
2017-09-24T10:14:51.988Z,74.44
2017-09-24T10:15:17.453Z,74.34
2017-09-24T10:15:42.893Z,74.82
2017-09-24T10:16:08.346Z,74.73
2017-09-24T10:16:33.797Z,74.92
2017-09-24T10:16:59.251Z,74.82
2017-09-24T10:17:24.699Z,74.92
2017-09-24T10:17:50.146Z,74.82
2017-09-24T10:18:15.613Z,74.82
2017-09-24T10:18:41.062Z,74.82
2017-09-24T10:19:06.527Z,74.73
2017-09-24T10:19:31.975Z,74.92
2017-09-24T10:19:57.423Z,74.73
2017-09-24T10:20:22.878Z,74.63
2017-09-24T10:20:48.332Z,74.63
2017-09-24T10:21:13.786Z,74.63
2017-09-24T10:21:39.249Z,74.73
2017-09-24T10:22:04.685Z,74.63
2017-09-24T10:22:30.158Z,74.82
2017-09-24T10:22:55.591Z,74.73
2017-09-24T10:23:21.059Z,74.63
2017-09-24T10:24:34.302Z,74.63
2017-09-24T10:24:59.753Z,74.73
2017-09-24T10:25:25.201Z,74.73
2017-09-24T10:25:50.663Z,74.54
2017-09-24T10:26:16.115Z,74.63
2017-09-24T10:26:41.568Z,74.54
2017-09-24T10:27:07.019Z,74.54
2017-09-24T10:27:32.508Z,74.63
2017-09-24T10:27:58.003Z,74.73
2017-09-24T10:28:23.463Z,74.44
2017-09-24T10:28:48.898Z,74.73
2017-09-24T10:29:14.353Z,74.73
2017-09-24T10:29:39.809Z,74.73
2017-09-24T10:30:05.267Z,74.54
2017-09-24T10:30:30.719Z,74.73
2017-09-24T10:30:56.180Z,74.54
2017-09-24T10:31:21.628Z,74.63
2017-09-24T10:31:47.087Z,74.63
2017-09-24T10:32:12.549Z,74.54
2017-09-24T10:32:38.000Z,74.63
2017-09-24T10:33:03.474Z,74.73
2017-09-24T10:33:28.920Z,74.73
2017-09-24T10:33:54.371Z,74.82
2017-09-24T10:34:19.833Z,74.82
2017-09-24T10:34:45.297Z,75.11
2017-09-24T10:35:10.756Z,74.73
2017-09-24T10:35:36.198Z,75.11
2017-09-24T10:36:01.674Z,74.63
2017-09-24T10:36:27.120Z,74.63
2017-09-24T10:36:52.560Z,74.73
2017-09-24T10:37:18.006Z,74.73
2017-09-24T10:37:43.457Z,74.92
2017-09-24T10:38:08.920Z,74.73
2017-09-24T10:38:34.368Z,74.92
2017-09-24T10:38:59.834Z,74.82
2017-09-24T10:39:25.297Z,74.82
2017-09-24T10:39:50.761Z,74.92
2017-09-24T10:40:16.217Z,74.92
2017-09-24T10:40:41.690Z,74.92
2017-09-24T10:41:07.153Z,75.02
2017-09-24T10:41:32.609Z,74.92
2017-09-24T10:41:58.072Z,74.92
2017-09-24T10:42:23.525Z,75.11
2017-09-24T10:42:48.990Z,74.82
2017-09-24T10:43:14.449Z,74.92
2017-09-24T10:43:39.908Z,75.11
2017-09-24T10:44:05.374Z,74.82
2017-09-24T10:44:30.824Z,74.73
2017-09-24T10:44:56.289Z,75.21
2017-09-24T10:45:21.751Z,75.11
2017-09-24T10:45:47.203Z,74.92
2017-09-24T10:46:12.652Z,75.21
2017-09-24T10:46:38.094Z,74.92
2017-09-24T10:47:03.540Z,74.92
2017-09-24T10:47:29.008Z,74.92
2017-09-24T10:47:54.447Z,74.92
2017-09-24T10:48:19.944Z,75.02
2017-09-24T10:48:45.375Z,75.02
2017-09-24T10:49:10.820Z,75.02
2017-09-24T10:49:36.279Z,75.02
2017-09-24T10:50:01.735Z,75.02
2017-09-24T10:50:27.203Z,74.82
2017-09-24T10:50:52.658Z,75.02
2017-09-24T10:51:18.111Z,74.92
2017-09-24T10:51:43.571Z,74.82
2017-09-24T10:52:09.055Z,74.82
2017-09-24T10:52:34.513Z,74.92
2017-09-24T10:52:59.982Z,74.82
2017-09-24T10:53:25.445Z,74.92
2017-09-24T10:53:50.919Z,75.02
2017-09-24T10:54:16.375Z,74.92
2017-09-24T10:54:41.819Z,74.92
2017-09-24T10:55:07.274Z,75.02
2017-09-24T10:55:32.728Z,75.02
2017-09-24T10:55:58.173Z,75.02
2017-09-24T10:56:23.621Z,74.63
2017-09-24T10:56:49.083Z,75.02
2017-09-24T10:57:14.542Z,74.63
2017-09-24T10:58:22.689Z,75.02
2017-09-24T10:58:48.131Z,74.63
2017-09-24T10:59:13.582Z,74.73
2017-09-24T10:59:39.043Z,74.82
2017-09-24T11:00:04.502Z,74.63
2017-09-24T11:00:29.961Z,74.73
2017-09-24T11:00:55.411Z,74.82
2017-09-24T11:01:20.869Z,74.73
2017-09-24T11:01:46.325Z,74.73
2017-09-24T11:02:11.787Z,74.73
2017-09-24T11:02:37.267Z,74.73
2017-09-24T11:03:02.730Z,74.73
2017-09-24T11:03:28.185Z,74.82
2017-09-24T11:03:53.642Z,74.82
2017-09-24T11:04:19.103Z,74.73
2017-09-24T11:04:44.550Z,75.11
2017-09-24T11:05:10.025Z,75.11
2017-09-24T11:05:35.471Z,74.92
2017-09-24T11:06:00.910Z,75.02
2017-09-24T11:06:26.369Z,75.11
2017-09-24T11:06:51.833Z,74.92
2017-09-24T11:07:17.290Z,75.11
2017-09-24T11:07:42.749Z,75.21
2017-09-24T11:08:08.194Z,75.11
2017-09-24T11:08:33.692Z,75.11
2017-09-24T11:08:59.145Z,75.31
2017-09-24T11:09:24.602Z,75.21
2017-09-24T11:09:50.059Z,75.31
2017-09-24T11:10:15.524Z,75.11
2017-09-24T11:10:40.969Z,75.31
2017-09-24T11:11:06.423Z,75.49
2017-09-24T11:11:31.880Z,75.4
2017-09-24T11:11:57.330Z,75.4
2017-09-24T11:12:22.783Z,75.31
2017-09-24T11:12:48.230Z,75.49
2017-09-24T11:13:13.682Z,75.49
2017-09-24T11:13:39.122Z,75.49
2017-09-24T11:14:04.587Z,75.31
2017-09-24T11:14:30.049Z,75.21
2017-09-24T11:14:55.506Z,75.21
2017-09-24T11:15:20.972Z,75.11
2017-09-24T11:15:46.423Z,75.4
2017-09-24T11:16:11.881Z,75.4
2017-09-24T11:16:37.337Z,75.21
2017-09-24T11:17:02.792Z,75.4
2017-09-24T11:17:28.243Z,75.11
2017-09-24T11:17:53.700Z,75.21
2017-09-24T11:18:19.160Z,75.4
2017-09-24T11:18:44.607Z,75.4
2017-09-24T11:19:10.074Z,75.4
2017-09-24T11:19:35.514Z,75.4
2017-09-24T11:20:00.982Z,75.4
2017-09-24T11:20:26.431Z,75.11
2017-09-24T11:20:51.877Z,75.4
2017-09-24T11:21:17.333Z,75.11
2017-09-24T11:21:42.774Z,75.11
2017-09-24T11:22:08.224Z,75.4
2017-09-24T11:22:33.681Z,75.11
2017-09-24T11:22:59.127Z,75.21
2017-09-24T11:23:24.580Z,75.11
2017-09-24T11:23:50.040Z,75.21
2017-09-24T11:24:15.492Z,75.11
2017-09-24T11:24:40.972Z,75.21
2017-09-24T11:25:06.431Z,75.21
2017-09-24T11:25:31.880Z,75.02
2017-09-24T11:25:57.338Z,75.02
2017-09-24T11:26:22.865Z,75.11
2017-09-24T11:26:48.317Z,75.21
2017-09-24T11:27:13.781Z,75.11
2017-09-24T11:27:39.231Z,74.92
2017-09-24T11:28:04.680Z,75.49
2017-09-24T11:28:30.145Z,75.31
2017-09-24T11:28:55.600Z,74.92
2017-09-24T11:29:21.072Z,75.4
2017-09-24T11:29:46.530Z,74.92
2017-09-24T11:30:12.007Z,75.11
2017-09-24T11:30:37.466Z,75.11
2017-09-24T11:31:02.922Z,75.31
2017-09-24T11:31:28.381Z,75.31
2017-09-24T11:31:53.831Z,75.31
2017-09-24T11:32:19.286Z,74.73
2017-09-24T11:32:44.750Z,75.11
2017-09-24T11:33:10.223Z,75.49
2017-09-24T11:33:35.673Z,75.11
2017-09-24T11:34:01.140Z,75.02
2017-09-24T11:34:26.601Z,75.31
2017-09-24T11:34:52.061Z,74.73
2017-09-24T11:35:17.484Z,75.34
2017-09-24T11:35:42.953Z,74.82
2017-09-24T11:36:08.439Z,74.92
2017-09-24T11:36:34.401Z,74.96
2017-09-24T11:37:00.795Z,75.15
2017-09-24T11:37:26.249Z,74.82
2017-09-24T11:37:51.721Z,75.02
2017-09-24T11:38:17.177Z,74.92
2017-09-24T11:38:42.641Z,75.15
2017-09-24T11:39:08.099Z,75.24
2017-09-24T11:39:33.560Z,75.15
2017-09-24T11:39:59.015Z,75.11
2017-09-24T11:40:24.473Z,74.92
2017-09-24T11:40:49.936Z,75.15
2017-09-24T11:41:15.385Z,75.31
2017-09-24T11:41:40.828Z,75.34
2017-09-24T11:42:06.289Z,75.21
2017-09-24T11:42:32.699Z,75.31
2017-09-24T11:42:59.028Z,75.31
2017-09-24T11:45:32.841Z,75.11
2017-09-24T11:45:58.298Z,75.11
2017-09-24T11:46:23.744Z,75.34
2017-09-24T11:47:16.612Z,75.24
2017-09-24T11:47:42.063Z,75.15
2017-09-24T11:48:07.524Z,75.24
2017-09-24T11:48:32.986Z,75.24
2017-09-24T11:48:58.433Z,75.24
2017-09-24T11:49:23.897Z,75.44
2017-09-24T11:49:49.368Z,75.24
2017-09-24T11:50:14.827Z,75.31
2017-09-24T11:50:40.280Z,75.34
2017-09-24T11:51:05.739Z,75.31
2017-09-24T11:51:31.179Z,75.05
2017-09-24T11:51:56.637Z,75.34
2017-09-24T11:52:22.093Z,75.11
2017-09-24T11:52:47.540Z,75.44
2017-09-24T11:53:12.996Z,75.34
2017-09-24T11:53:38.470Z,75.11
2017-09-24T11:54:03.907Z,75.24
2017-09-24T11:54:29.357Z,75.24
2017-09-24T12:01:17.883Z,72.28
2017-09-24T12:32:37.436Z,73.42
2017-09-24T12:33:02.890Z,73.32
2017-09-24T12:33:28.333Z,72.65
2017-09-24T12:33:53.791Z,73.32
2017-09-24T12:34:19.246Z,73.03
2017-09-24T12:34:44.717Z,73.13
2017-09-24T12:35:10.172Z,72.84
2017-09-24T12:35:35.624Z,72.74
2017-09-24T12:36:01.086Z,72.94
2017-09-24T12:36:26.541Z,72.94
2017-09-24T12:36:52.004Z,72.74
2017-09-24T12:37:17.466Z,73.03
2017-09-24T12:37:42.916Z,73.03
2017-09-24T12:38:08.377Z,72.94
2017-09-24T12:38:33.832Z,72.84
2017-09-24T12:38:59.288Z,72.94
2017-09-24T12:39:24.753Z,72.94
2017-09-24T12:39:50.205Z,72.74
2017-09-24T12:40:15.666Z,72.84
2017-09-24T12:40:41.125Z,73.03
2017-09-24T12:41:06.579Z,72.74
2017-09-24T12:41:32.032Z,72.74
2017-09-24T12:41:57.476Z,72.94
2017-09-24T12:42:22.946Z,72.84
2017-09-24T12:42:48.434Z,72.94
2017-09-24T12:43:13.890Z,72.84
2017-09-24T12:43:39.358Z,72.65
2017-09-24T12:44:04.817Z,73.03
2017-09-24T12:44:30.269Z,72.94
2017-09-24T12:44:55.715Z,72.65
2017-09-24T12:45:21.176Z,72.55
2017-09-24T12:45:46.634Z,72.84
2017-09-24T12:46:12.083Z,72.74
2017-09-24T12:46:37.534Z,72.65
2017-09-24T12:47:02.986Z,72.74
2017-09-24T12:47:28.446Z,72.74
2017-09-24T12:47:53.907Z,72.94
2017-09-24T12:48:19.366Z,72.74
2017-09-24T12:48:44.842Z,72.74
2017-09-24T12:49:10.293Z,72.55
2017-09-24T12:49:35.750Z,72.55
2017-09-24T12:50:01.213Z,72.84
2017-09-24T12:50:26.671Z,72.84
2017-09-24T12:50:52.145Z,72.84
2017-09-24T12:51:17.601Z,72.84
2017-09-24T12:51:43.063Z,72.84
2017-09-24T12:52:08.517Z,72.84
2017-09-24T12:52:33.977Z,72.55
2017-09-24T12:52:59.422Z,72.74
2017-09-24T12:53:24.874Z,72.84
2017-09-24T12:53:50.317Z,72.65
2017-09-24T12:54:15.784Z,72.84
2017-09-24T12:54:41.244Z,72.74
2017-09-24T12:55:06.704Z,72.84
2017-09-24T12:55:32.161Z,72.55
2017-09-24T12:55:57.625Z,72.74
2017-09-24T12:56:23.087Z,72.74
2017-09-24T12:56:48.545Z,72.74
2017-09-24T12:57:14.010Z,72.74
2017-09-24T12:57:39.465Z,72.74
2017-09-24T12:58:04.925Z,72.84
2017-09-24T12:58:30.366Z,72.84
2017-09-24T12:58:55.836Z,72.74
2017-09-24T12:59:21.295Z,72.74
2017-09-24T12:59:46.752Z,72.94
2017-09-24T13:00:12.216Z,72.94
2017-09-24T13:00:37.670Z,72.94
2017-09-24T13:01:03.106Z,72.74
2017-09-24T13:01:28.564Z,72.84
2017-09-24T13:01:54.019Z,72.94
2017-09-24T13:02:19.469Z,72.74
2017-09-24T13:02:44.929Z,72.74
2017-09-24T13:03:10.373Z,72.74
2017-09-24T13:03:35.823Z,72.94
2017-09-24T13:04:01.280Z,72.94
2017-09-24T13:04:26.747Z,72.94
2017-09-24T13:04:52.188Z,72.84
2017-09-24T13:05:17.647Z,72.94
2017-09-24T13:05:43.100Z,72.74
2017-09-24T13:06:08.560Z,72.94
2017-09-24T13:06:34.011Z,72.94
2017-09-24T13:06:59.465Z,72.84
2017-09-24T13:07:24.942Z,72.94
2017-09-24T13:07:50.463Z,72.94
2017-09-24T13:08:15.917Z,72.84
2017-09-24T13:08:41.370Z,72.94
2017-09-24T13:09:06.828Z,72.94
2017-09-24T13:09:32.290Z,72.84
2017-09-24T13:09:57.749Z,72.94
2017-09-24T13:10:23.201Z,72.94
2017-09-24T13:10:48.665Z,72.94
2017-09-24T13:11:14.122Z,72.94
2017-09-24T13:11:39.571Z,72.74
2017-09-24T13:12:05.034Z,73.03
2017-09-24T13:12:30.491Z,72.84
2017-09-24T13:12:55.946Z,72.74
2017-09-24T13:13:21.410Z,72.94
2017-09-24T13:13:46.866Z,72.84
2017-09-24T13:14:12.327Z,72.84
2017-09-24T13:14:37.787Z,72.94
2017-09-24T13:15:03.245Z,72.84
2017-09-24T13:15:28.713Z,72.84
2017-09-24T13:15:54.175Z,73.03
2017-09-24T13:16:19.635Z,72.84
2017-09-24T13:16:45.097Z,73.03
2017-09-24T13:17:10.546Z,72.84
2017-09-24T13:17:36.020Z,72.94
2017-09-24T13:18:01.461Z,72.84
2017-09-24T13:18:26.924Z,72.94
2017-09-24T13:18:52.375Z,72.84
2017-09-24T13:19:17.831Z,72.84
2017-09-24T13:19:43.280Z,72.84
2017-09-24T13:20:08.741Z,72.84
2017-09-24T13:20:34.201Z,73.03
2017-09-24T13:20:59.654Z,73.03
2017-09-24T13:21:25.119Z,73.22
2017-09-24T13:21:50.571Z,72.84
2017-09-24T13:22:16.027Z,73.03
2017-09-24T13:22:41.481Z,72.94
2017-09-24T13:23:06.942Z,72.94
2017-09-24T13:23:32.397Z,72.84
2017-09-24T13:23:57.861Z,73.03
2017-09-24T13:24:23.316Z,72.84
2017-09-24T13:24:48.775Z,72.94
2017-09-24T13:25:14.234Z,72.84
2017-09-24T13:25:39.683Z,72.94
2017-09-24T13:26:05.146Z,72.84
2017-09-24T13:26:30.599Z,72.94
2017-09-24T13:26:56.068Z,72.97
2017-09-24T13:27:21.513Z,73.03
2017-09-24T13:27:46.973Z,72.84
2017-09-24T13:28:12.425Z,72.94
2017-09-24T13:28:37.884Z,73.07
2017-09-24T13:29:03.328Z,72.84
2017-09-24T13:29:28.775Z,72.84
2017-09-24T13:29:54.228Z,73.03
2017-09-24T13:30:19.698Z,73.03
2017-09-24T13:30:45.166Z,72.94
2017-09-24T13:31:10.619Z,72.84
2017-09-24T13:31:36.073Z,72.84
2017-09-24T13:32:01.535Z,72.84
2017-09-24T13:32:27.002Z,73.07
2017-09-24T13:32:52.449Z,72.94
2017-09-24T13:33:17.904Z,72.97
2017-09-24T13:33:43.351Z,73.07
2017-09-24T13:34:08.837Z,72.97
2017-09-24T13:34:34.283Z,72.88
2017-09-24T13:34:59.744Z,72.84
2017-09-24T13:35:25.235Z,72.88
2017-09-24T13:35:50.690Z,73.32
2017-09-24T13:36:16.144Z,72.74
2017-09-24T13:36:41.609Z,73.03
2017-09-24T13:37:07.058Z,73.03
2017-09-24T13:37:32.508Z,72.84
2017-09-24T13:37:57.980Z,73.22
2017-09-24T13:38:23.443Z,73.03
2017-09-24T13:38:48.897Z,73.03
2017-09-24T13:39:14.356Z,72.65
2017-09-24T13:39:39.843Z,72.84
2017-09-24T13:40:05.289Z,72.68
2017-09-24T13:40:30.736Z,72.68
2017-09-24T13:40:56.187Z,72.74
2017-09-24T13:41:21.647Z,72.55
2017-09-24T13:41:47.118Z,72.07
2017-09-24T13:42:12.571Z,72.2
2017-09-24T13:42:38.033Z,72.68
2017-09-24T13:43:03.465Z,72.07
2017-09-24T13:43:28.925Z,72.74
2017-09-24T13:43:54.384Z,72.45
2017-09-24T13:44:19.839Z,72.59
2017-09-24T13:44:45.299Z,72.65
2017-09-24T13:45:10.753Z,72.2
2017-09-24T13:45:36.214Z,72.59
2017-09-24T13:46:01.674Z,73.07
2017-09-24T13:46:27.137Z,72.78
2017-09-24T13:46:52.591Z,72.78
2017-09-24T13:47:18.042Z,72.88
2017-09-24T13:47:43.492Z,72.68
2017-09-24T13:48:08.954Z,72.65
2017-09-24T13:48:34.410Z,73.07
2017-09-24T13:48:59.861Z,72.78
2017-09-24T13:49:25.316Z,72.88
2017-09-24T13:49:50.775Z,73.26
2017-09-24T13:50:16.230Z,73.26
2017-09-24T13:50:41.693Z,73.26
2017-09-24T13:51:07.140Z,72.88
2017-09-24T13:51:32.592Z,72.88
2017-09-24T13:51:58.042Z,73.26
2017-09-24T13:52:23.493Z,72.97
2017-09-24T13:52:48.955Z,72.88
2017-09-24T13:53:14.394Z,73.26
2017-09-24T13:53:39.854Z,72.97
2017-09-24T13:54:05.405Z,73.26
2017-09-24T13:54:30.798Z,73.32
2017-09-24T13:54:56.233Z,73.07
2017-09-24T13:55:22.092Z,72.88
2017-09-24T13:55:47.511Z,73.26
2017-09-24T13:56:12.970Z,72.97
2017-09-24T13:56:38.426Z,72.97
2017-09-24T13:57:03.923Z,72.88
2017-09-24T13:57:29.443Z,73.26
2017-09-24T13:57:54.816Z,72.88
2017-09-24T13:58:20.259Z,73.07
2017-09-24T13:58:45.705Z,73.26
2017-09-24T13:59:11.159Z,73.26
2017-09-24T13:59:36.611Z,73.26
2017-09-24T14:00:02.066Z,72.88
2017-09-24T14:00:27.502Z,73.26
2017-09-24T14:00:52.972Z,72.88
2017-09-24T14:01:18.432Z,72.88
2017-09-24T14:01:43.884Z,72.97
2017-09-24T14:02:09.335Z,72.97
2017-09-24T14:02:34.800Z,72.88
2017-09-24T14:03:00.262Z,72.88
2017-09-24T14:03:25.729Z,72.97
2017-09-24T14:03:51.190Z,72.97
2017-09-24T14:04:16.648Z,72.88
2017-09-24T14:04:42.090Z,73.26
2017-09-24T14:05:07.562Z,72.88
2017-09-24T14:05:33.004Z,73.26
2017-09-24T14:05:58.452Z,72.88
2017-09-24T14:06:23.904Z,73.26
2017-09-24T14:06:49.346Z,72.88
2017-09-24T14:07:14.888Z,72.88
2017-09-24T14:07:40.337Z,72.88
2017-09-24T14:08:05.779Z,72.97
2017-09-24T14:08:31.236Z,72.97
2017-09-24T14:08:56.692Z,72.88
2017-09-24T14:09:22.137Z,73.26
2017-09-24T14:09:47.588Z,73.26
2017-09-24T14:10:13.029Z,72.88
2017-09-24T14:10:38.501Z,73.26
2017-09-24T14:11:03.966Z,72.88
2017-09-24T14:11:29.430Z,73.07
2017-09-24T14:11:54.874Z,72.68
2017-09-24T14:12:20.322Z,73.07
2017-09-24T14:12:45.771Z,72.78
2017-09-24T14:13:11.230Z,72.68
2017-09-24T14:13:36.673Z,73.07
2017-09-24T14:14:02.138Z,72.68
2017-09-24T14:14:27.649Z,72.2
2017-09-24T14:14:53.091Z,72.78
2017-09-24T14:15:18.552Z,73.16
2017-09-24T14:15:43.993Z,72.78
2017-09-24T14:16:09.449Z,72.68
2017-09-24T14:16:34.916Z,72.88
2017-09-24T14:17:00.336Z,72.68
2017-09-24T14:17:25.785Z,72.68
2017-09-24T14:17:51.245Z,72.78
2017-09-24T14:18:16.702Z,72.3
2017-09-24T14:18:42.151Z,72.68
2017-09-24T14:19:07.597Z,72.78
2017-09-24T14:19:33.026Z,72.49
2017-09-24T14:19:58.489Z,72.49
2017-09-24T14:20:23.938Z,72.49
2017-09-24T14:20:49.385Z,72.39
2017-09-24T14:21:14.855Z,72.49
2017-09-24T14:21:40.312Z,72.49
2017-09-24T14:22:05.763Z,72.49
2017-09-24T14:22:31.219Z,72.39
2017-09-24T14:22:56.665Z,72.49
2017-09-24T14:23:22.128Z,72.39
2017-09-24T14:23:47.562Z,72.39
2017-09-24T14:24:13.012Z,72.39
2017-09-24T14:24:38.467Z,72.39
2017-09-24T14:25:03.918Z,72.3
2017-09-24T14:25:29.373Z,72.3
2017-09-24T14:25:54.828Z,72.3
2017-09-24T14:26:20.290Z,72.3
2017-09-24T14:26:45.740Z,72.3
2017-09-24T14:27:11.203Z,72.3
2017-09-24T14:27:36.656Z,72.49
2017-09-24T14:28:02.124Z,72.39
2017-09-24T14:28:27.577Z,72.49
2017-09-24T14:28:53.026Z,72.49
2017-09-24T14:29:18.482Z,72.39
2017-09-24T14:29:43.935Z,72.68
2017-09-24T14:30:09.393Z,72.49
2017-09-24T14:30:34.836Z,72.3
2017-09-24T14:31:00.304Z,72.59
2017-09-24T14:31:25.761Z,72.49
2017-09-24T14:31:51.218Z,72.39
2017-09-24T14:32:16.685Z,72.39
2017-09-24T14:32:42.133Z,72.39
2017-09-24T14:33:07.577Z,72.59
2017-09-24T14:33:33.030Z,72.68
2017-09-24T14:33:58.479Z,72.68
2017-09-24T14:34:23.941Z,72.59
2017-09-24T14:34:49.413Z,72.68
2017-09-24T14:35:14.848Z,72.68
2017-09-24T14:35:40.304Z,72.68
2017-09-24T14:36:05.762Z,72.68
2017-09-24T14:36:31.222Z,72.59
2017-09-24T14:36:56.705Z,72.49
2017-09-24T14:37:22.167Z,72.49
2017-09-24T14:37:47.675Z,72.39
2017-09-24T14:38:13.132Z,72.2
2017-09-24T14:38:38.573Z,71.91
2017-09-24T14:39:04.030Z,72.2
2017-09-24T14:39:29.496Z,72.2
2017-09-24T14:39:54.974Z,72.01
2017-09-24T14:40:20.417Z,71.91
2017-09-24T14:40:45.871Z,72.49
2017-09-24T14:41:11.332Z,72.39
2017-09-24T14:41:36.783Z,72.3
2017-09-24T14:42:02.265Z,72.2
2017-09-24T14:42:27.726Z,71.91
2017-09-24T14:42:53.182Z,72.3
2017-09-24T14:43:18.636Z,72.2
2017-09-24T14:43:44.057Z,72.3
2017-09-24T14:44:09.536Z,71.91
2017-09-24T14:44:35.001Z,72.01
2017-09-24T14:45:00.444Z,72.39
2017-09-24T14:45:25.900Z,71.91
2017-09-24T14:45:51.357Z,71.91
2017-09-24T14:46:16.802Z,72.39